M I D A S
Marine Information and Data Acquisition System
Tripno 2256 of the Zeeleeuw from 2012-01-18 07:40:16 to 2012-01-18 16:54:26
Back to CruiseResearch ActivitiesStationsMapUnderway DataData graphs

EquipmentUnitsComment
TimeDGPSUTC
LatitudeDGPSDM.mWGS84
LongitudeDGPSDM.mWGS84
HeadingGyrodeg 
SOGDGPSknotsSpeed over ground
COGDGPSdegCourse over ground
DepthEcho soundermeters200 kHz
Missing or incorrect values are displayed as -999
Navigation data collected by the RV Zeeleeuw from 2012-01-18 07:39:57 to 2012-01-18 17:03:28
Time Latitude Longitude Heading SOG COG Depth
2012-01-18 07:41:02 51°13.645 2°55.962 105.2 4.3 285 -999
2012-01-18 07:42:03 51°13.672 2°55.858 117.7 4.3 299 -999
2012-01-18 07:43:03 51°13.723 2°55.756 134.7 5.3 316 -999
2012-01-18 07:44:02 51°13.792 2°55.664 144.2 5.6 325 -999
2012-01-18 07:45:02 51°13.871 2°55.609 169.1 4.9 348 -999
2012-01-18 07:46:03 51°13.945 2°55.619 206.1 3.9 21 -999
2012-01-18 07:47:03 51°13.983 2°55.666 242.7 1.7 46 -999
2012-01-18 07:48:02 51°13.999 2°55.618 288.9 4.8 295 -999
2012-01-18 07:49:02 51°14.078 2°55.489 322.1 8.3 325 -999
2012-01-18 07:50:03 51°14.21 2°55.36 329.2 9.9 330 -999
2012-01-18 07:51:03 51°14.361 2°55.224 331.6 10.5 331 -999
2012-01-18 07:52:01 51°14.511 2°55.079 329.7 11.3 329 13
2012-01-18 07:52:59 51°14.673 2°54.932 325.4 11.8 330 14.2
2012-01-18 07:53:59 51°14.845 2°54.758 320.5 12.5 327 13
2012-01-18 07:54:59 51°15.011 2°54.564 322.8 12.5 328 12.6
2012-01-18 07:55:59 51°15.188 2°54.39 319.7 12.5 325 11.7
2012-01-18 07:56:59 51°15.373 2°54.232 326.8 12.5 328 12.2
2012-01-18 07:57:59 51°15.531 2°54.023 313.5 12.3 318 12.6
2012-01-18 07:58:59 51°15.675 2°53.793 310.4 12.3 317 13.3
2012-01-18 07:59:59 51°15.824 2°53.572 307.8 12.2 313 14
2012-01-18 08:00:59 51°15.998 2°53.399 327 12.5 333 14.4
2012-01-18 08:01:59 51°16.187 2°53.253 331.6 12.8 337 14.4
2012-01-18 08:02:59 51°16.378 2°53.113 329.5 12.7 335 14.7
2012-01-18 08:03:59 51°16.561 2°52.953 323.3 12.6 328 14.3
2012-01-18 08:04:59 51°16.745 2°52.796 330.9 12.5 336 12.7
2012-01-18 08:06:00 51°16.942 2°52.66 330.9 12.7 337 12.2
2012-01-18 08:06:59 51°17.132 2°52.526 336.4 12.7 342 12.4
2012-01-18 08:07:59 51°17.344 2°52.465 349 13.2 353 12.4
2012-01-18 08:08:59 51°17.56 2°52.425 352.8 13.1 356 12.7
2012-01-18 08:09:59 51°17.779 2°52.414 356.2 13.2 359 12.8
2012-01-18 08:10:59 51°17.999 2°52.41 356 13.3 358 12.8
2012-01-18 08:11:59 51°18.214 2°52.377 348.9 12.9 351 13.3
2012-01-18 08:12:59 51°18.427 2°52.346 354.8 12.8 359 13.6
2012-01-18 08:13:59 51°18.645 2°52.333 356.1 13.2 -999 14.2
2012-01-18 08:14:59 51°18.863 2°52.325 352.3 13 355 15
2012-01-18 08:15:59 51°19.08 2°52.293 351.4 13 356 16.3
2012-01-18 08:16:59 51°19.297 2°52.28 357.9 13.1 1 17
2012-01-18 08:17:59 51°19.516 2°52.291 358.6 13.2 2 17.8
2012-01-18 08:18:59 51°19.737 2°52.303 357.2 13.2 358 18.4
2012-01-18 08:19:59 51°19.956 2°52.292 354.3 12.9 358 18.4
2012-01-18 08:20:59 51°20.175 2°52.289 357.7 13.2 2 18.5
2012-01-18 08:22:00 51°20.396 2°52.296 357.9 13 2 17
2012-01-18 08:22:59 51°20.609 2°52.326 1.4 13.1 3 16.4
2012-01-18 08:23:59 51°20.827 2°52.356 1.5 13.3 5 16.4
2012-01-18 08:24:59 51°21.046 2°52.379 358.8 13.2 2 17.9
2012-01-18 08:25:59 51°21.265 2°52.4 1.1 13.3 5 19.6
2012-01-18 08:26:59 51°21.488 2°52.432 2.1 13.5 5 21
2012-01-18 08:27:59 51°21.711 2°52.47 358.1 13.3 3 23
2012-01-18 08:28:59 51°21.934 2°52.487 358 13.3 2 25.8
2012-01-18 08:29:59 51°22.158 2°52.515 357.7 13.5 3 25.9
2012-01-18 08:30:59 51°22.383 2°52.551 3.4 13.6 8 25.4
2012-01-18 08:31:59 51°22.607 2°52.584 359.2 13.4 3 24.8
2012-01-18 08:32:59 51°22.831 2°52.639 5.5 13.6 8 25.4
2012-01-18 08:33:59 51°23.055 2°52.682 2.4 13.5 6 25.2
2012-01-18 08:34:59 51°23.28 2°52.735 6.3 13.7 9 23.2
2012-01-18 08:35:59 51°23.5 2°52.817 12.4 13.7 14 22.9
2012-01-18 08:36:59 51°23.722 2°52.905 11.7 13.7 12 22.2
2012-01-18 08:37:59 51°23.943 2°52.975 8.8 13.6 12 18.9
2012-01-18 08:38:59 51°24.165 2°53.031 6.5 13.6 8 19.9
2012-01-18 08:39:59 51°24.385 2°53.097 13 13.4 13 18.2
2012-01-18 08:40:59 51°24.605 2°53.168 7.7 13.4 8 21.8
2012-01-18 08:41:59 51°24.824 2°53.23 8.1 13.5 7 20.3
2012-01-18 08:42:59 51°25.045 2°53.286 8.1 13.3 11 22.1
2012-01-18 08:43:59 51°25.264 2°53.362 9.5 13.5 10 24
2012-01-18 08:44:59 51°25.483 2°53.433 9.5 13.5 11 25.8
2012-01-18 08:45:59 51°25.703 2°53.508 9.1 13.5 11 28.1
2012-01-18 08:46:59 51°25.924 2°53.571 9 13.7 13 30.7
2012-01-18 08:47:59 51°26.145 2°53.647 7.4 13.5 15 33.3
2012-01-18 08:49:00 51°26.368 2°53.724 8.9 13.5 13 34.9
2012-01-18 08:50:00 51°26.589 2°53.792 9.4 13.5 6 34.3
2012-01-18 08:51:00 51°26.812 2°53.866 9.4 13.7 15 29.5
2012-01-18 08:51:59 51°27.03 2°53.946 6.6 13.7 14 25.2
2012-01-18 08:53:00 51°27.258 2°54.009 5.1 13.6 10 26.3
2012-01-18 08:53:59 51°27.479 2°54.06 3.5 13.6 6 26.7
2012-01-18 08:54:59 51°27.706 2°54.113 6.7 14 9 22.8
2012-01-18 08:55:59 51°27.935 2°54.186 8.8 14.2 13 21
2012-01-18 08:56:59 51°28.161 2°54.247 8.3 13.8 11 22.4
2012-01-18 08:57:59 51°28.384 2°54.303 6.7 13.4 10 22.8
2012-01-18 08:58:59 51°28.606 2°54.353 4.6 13.6 11 25.6
2012-01-18 08:59:59 51°28.828 2°54.409 7.8 13.6 8 27.2
2012-01-18 09:00:59 51°29.048 2°54.462 4.9 13.4 10 28.1
2012-01-18 09:02:00 51°29.273 2°54.483 1 13.5 4 29.8
2012-01-18 09:03:00 51°29.494 2°54.493 359.3 13.4 2 31.2
2012-01-18 09:03:59 51°29.714 2°54.495 354.4 13.4 356 31.4
2012-01-18 09:04:59 51°29.936 2°54.484 351.9 13.3 358 34.9
2012-01-18 09:05:59 51°30.155 2°54.473 355.3 13.5 358 34.8
2012-01-18 09:06:59 51°30.378 2°54.465 354.1 13.3 357 36.4
2012-01-18 09:07:59 51°30.601 2°54.459 354.3 13.5 -999 33.7
2012-01-18 09:09:00 51°30.825 2°54.44 353.1 13.1 354 16.1
2012-01-18 09:09:59 51°31.045 2°54.422 352.8 13.4 359 20.7
2012-01-18 09:10:59 51°31.269 2°54.408 355.2 13.5 353 21.2
2012-01-18 09:11:59 51°31.495 2°54.386 354.7 13.6 353 18.5
2012-01-18 09:12:59 51°31.72 2°54.368 355.3 13.7 358 22.8
2012-01-18 09:13:59 51°31.945 2°54.356 353.9 13.6 356 23.3
2012-01-18 09:14:59 51°32.164 2°54.408 21.9 13.3 23 23.3
2012-01-18 09:16:00 51°32.325 2°54.663 54.2 13.7 53 24.3
2012-01-18 09:16:59 51°32.449 2°54.937 58.7 11.1 56 22.4
2012-01-18 09:18:00 51°32.532 2°55.14 62.5 8.1 56 24.7
2012-01-18 09:19:00 51°32.589 2°55.281 74.8 4.8 61 25.4
2012-01-18 09:19:59 51°32.621 2°55.37 87.8 3.3 59 25.3
2012-01-18 09:20:59 51°32.645 2°55.433 106.8 2.4 56 25.4
2012-01-18 09:21:59 51°32.67 2°55.476 112.9 2.1 41 23.5
2012-01-18 09:22:59 51°32.698 2°55.508 114.8 2 29 25.7
2012-01-18 09:23:59 51°32.733 2°55.517 104.2 2.7 330 26.8
2012-01-18 09:25:03 51°32.766 2°55.491 77.1 2 16 -999
2012-01-18 09:26:02 51°32.788 2°55.473 67.1 2.3 283 -999
2012-01-18 09:27:03 51°32.773 2°55.396 40.4 3.6 233 -999
2012-01-18 09:28:03 51°32.717 2°55.343 24.3 4 207 -999
2012-01-18 09:29:03 51°32.682 2°55.321 16.8 0.3 103 -999
2012-01-18 09:30:03 51°32.712 2°55.338 334.9 2.6 -999 25.8
2012-01-18 09:31:01 51°32.752 2°55.322 289.8 2.6 337 25.4
2012-01-18 09:32:00 51°32.78 2°55.291 251 1.6 314 25
2012-01-18 09:32:59 51°32.773 2°55.237 222.8 4.5 224 25.9
2012-01-18 09:33:59 51°32.68 2°55.193 198.6 7 198 25.3
2012-01-18 09:34:59 51°32.574 2°55.105 207.7 7.3 208 23.5
2012-01-18 09:36:00 51°32.487 2°54.993 226.8 4.5 237 25.1
2012-01-18 09:37:00 51°32.486 2°54.928 255.9 1.9 305 24.8
2012-01-18 09:37:59 51°32.511 2°54.906 260.3 1.8 357 24.7
2012-01-18 09:38:59 51°32.545 2°54.912 279.2 2.2 15 24.6
2012-01-18 09:39:59 51°32.58 2°54.937 302.8 2.4 28 20.4
2012-01-18 09:41:00 51°32.614 2°54.968 312.2 2.1 31 24.7
2012-01-18 09:41:59 51°32.64 2°55.006 315.8 2.1 53 24.4
2012-01-18 09:43:00 51°32.662 2°55.049 332.5 1.9 56 26.1
2012-01-18 09:44:00 51°32.676 2°55.089 344.2 1.6 71 25.3
2012-01-18 09:45:03 51°32.685 2°55.126 3.6 1.2 53 -999
2012-01-18 09:46:03 51°32.694 2°55.151 10.6 1 70 25
2012-01-18 09:47:02 51°32.699 2°55.171 21.5 0.7 72 25.9
2012-01-18 09:48:03 51°32.708 2°55.178 43.4 0.6 5 -999
2012-01-18 09:49:02 51°32.72 2°55.168 46.5 1 302 26
2012-01-18 09:50:02 51°32.727 2°55.151 35.3 0.6 313 26.1
2012-01-18 09:51:03 51°32.746 2°55.155 32.6 2.9 29 -999
2012-01-18 09:52:02 51°32.786 2°55.223 82.1 3.2 50 25.5
2012-01-18 09:53:00 51°32.814 2°55.277 96.5 2.5 49 23.4
2012-01-18 09:53:59 51°32.841 2°55.314 107.1 2.3 49 25
2012-01-18 09:54:59 51°32.811 2°55.37 183.9 4.8 184 25.7
2012-01-18 09:55:59 51°32.676 2°55.329 195.7 9.8 198 23.1
2012-01-18 09:56:59 51°32.521 2°55.238 199.8 9.5 200 24.7
2012-01-18 09:58:00 51°32.442 2°55.168 214.9 2.6 224 23.5
2012-01-18 09:59:00 51°32.437 2°55.145 219.2 0.6 347 24.2
2012-01-18 09:59:59 51°32.452 2°55.147 213.2 0.2 300 24
2012-01-18 10:01:00 51°32.44 2°55.19 127.4 3.1 91 22.4
2012-01-18 10:02:00 51°32.451 2°55.259 122.3 2.2 57 23.6
2012-01-18 10:02:59 51°32.483 2°55.275 110.4 2.5 351 23.8
2012-01-18 10:04:01 51°32.516 2°55.252 83.3 1.8 335 24.5
2012-01-18 10:05:03 51°32.54 2°55.216 67.5 1.6 307 -999
2012-01-18 10:06:03 51°32.55 2°55.174 49.7 1.6 280 -999
2012-01-18 10:07:03 51°32.543 2°55.147 28.3 1.2 227 -999
2012-01-18 10:08:03 51°32.526 2°55.134 25.5 1.2 208 -999
2012-01-18 10:09:03 51°32.515 2°55.118 34.9 0.7 235 -999
2012-01-18 10:10:03 51°32.514 2°55.098 43.1 0.9 276 -999
2012-01-18 10:11:03 51°32.52 2°55.08 36.4 0.7 302 -999
2012-01-18 10:12:03 51°32.53 2°55.077 28.5 0.9 12 -999
2012-01-18 10:13:01 51°32.547 2°55.086 17.4 0.9 32 23.5
2012-01-18 10:14:03 51°32.558 2°55.102 10.2 0.9 49 -999
2012-01-18 10:15:03 51°32.557 2°55.12 15.2 0.7 136 -999
2012-01-18 10:16:03 51°32.547 2°55.114 32.7 0.9 224 -999
2012-01-18 10:17:03 51°32.538 2°55.086 35.1 1.2 245 -999
2012-01-18 10:18:03 51°32.53 2°55.071 20.6 0.9 201 -999
2012-01-18 10:19:03 51°32.514 2°55.064 19 1 184 -999
2012-01-18 10:20:03 51°32.498 2°55.054 29 1.1 221 -999
2012-01-18 10:21:03 51°32.484 2°55.032 30.8 1.1 231 -999
2012-01-18 10:22:03 51°32.471 2°55.005 33.6 1.3 242 -999
2012-01-18 10:23:03 51°32.47 2°54.987 30.6 0.6 328 -999
2012-01-18 10:24:03 51°32.48 2°54.987 24 0.8 4 -999
2012-01-18 10:25:03 51°32.491 2°54.99 24 0.5 22 -999
2012-01-18 10:26:03 51°32.506 2°54.998 20.4 0.9 13 -999
2012-01-18 10:27:03 51°32.518 2°55.004 25.9 0.4 10 -999
2012-01-18 10:28:03 51°32.523 2°55.001 32.6 0.3 332 -999
2012-01-18 10:29:03 51°32.53 2°54.989 36.4 0.7 310 -999
2012-01-18 10:30:03 51°32.538 2°54.978 30.6 0.7 350 -999
2012-01-18 10:31:03 51°32.552 2°54.982 36.5 2.1 26 -999
2012-01-18 10:32:03 51°32.59 2°55.027 71.9 2.8 36 -999
2012-01-18 10:33:01 51°32.621 2°55.071 94.8 2.4 43 24.4
2012-01-18 10:34:00 51°32.636 2°55.121 130.2 1.9 77 24.5
2012-01-18 10:34:59 51°32.64 2°55.167 151.7 1.6 91 23.4
2012-01-18 10:35:59 51°32.613 2°55.198 180.7 2.5 168 22.4
2012-01-18 10:37:00 51°32.568 2°55.17 217.1 3.2 232 22.8
2012-01-18 10:38:00 51°32.555 2°55.046 249.3 6.5 260 20.4
2012-01-18 10:39:00 51°32.487 2°54.87 225 8.6 231 21.3
2012-01-18 10:40:00 51°32.377 2°54.669 226.2 10.7 230 23.7
2012-01-18 10:41:00 51°32.267 2°54.444 227.8 10.7 233 21
2012-01-18 10:42:00 51°32.169 2°54.201 235.6 11 240 22.5
2012-01-18 10:43:00 51°32.088 2°53.937 238.4 11 245 23.6
2012-01-18 10:44:00 51°31.996 2°53.684 233.3 11 238 21.9
2012-01-18 10:45:00 51°31.896 2°53.436 231.8 11 235 19.8
2012-01-18 10:45:59 51°31.795 2°53.203 230.2 10.9 235 20.9
2012-01-18 10:47:00 51°31.689 2°52.962 231.7 10.8 236 22.8
2012-01-18 10:47:59 51°31.596 2°52.718 234.1 11 239 22.6
2012-01-18 10:48:59 51°31.505 2°52.467 235.2 11 238 23.4
2012-01-18 10:50:00 51°31.439 2°52.359 189.3 2.6 171 22.3
2012-01-18 10:51:00 51°31.427 2°52.413 114.8 3 79 21.5
2012-01-18 10:51:59 51°31.452 2°52.487 80.7 3 54 22.5
2012-01-18 10:52:59 51°31.481 2°52.544 77.2 2.5 50 23.2
2012-01-18 10:54:00 51°31.518 2°52.602 56.9 4.1 39 22.7
2012-01-18 10:54:59 51°31.586 2°52.631 345.7 4 354 23.1
2012-01-18 10:56:00 51°31.634 2°52.613 310.9 1.9 355 24
2012-01-18 10:57:00 51°31.663 2°52.621 300.2 1.7 17 23
2012-01-18 10:58:00 51°31.693 2°52.635 295.6 1.8 18 24.1
2012-01-18 10:59:00 51°31.723 2°52.652 304.2 1.9 21 24
2012-01-18 11:00:00 51°31.754 2°52.662 300.6 2.5 337 23.3
2012-01-18 11:01:00 51°31.764 2°52.593 226.5 2.9 236 23.9
2012-01-18 11:02:00 51°31.681 2°52.565 185.6 7 185 23.4
2012-01-18 11:03:00 51°31.557 2°52.557 181 7.5 180 21
2012-01-18 11:03:59 51°31.43 2°52.548 188.6 7.8 189 23
2012-01-18 11:05:00 51°31.301 2°52.489 193.1 8.1 195 22.6
2012-01-18 11:06:00 51°31.216 2°52.457 197.2 1.9 196 21.6
2012-01-18 11:07:00 51°31.225 2°52.468 186 1.5 33 22.2
2012-01-18 11:08:01 51°31.255 2°52.484 155.9 1.9 14 21.2
2012-01-18 11:09:00 51°31.279 2°52.494 152 1.2 17 20.6
2012-01-18 11:09:59 51°31.286 2°52.507 171.7 0.5 96 22
2012-01-18 11:11:00 51°31.283 2°52.516 191.9 0.3 137 22.4
2012-01-18 11:12:00 51°31.282 2°52.519 202.4 0.1 202 22.2
2012-01-18 11:13:00 51°31.285 2°52.514 211 0.5 323 22.2
2012-01-18 11:13:59 51°31.285 2°52.51 206.5 0.2 272 21.9
2012-01-18 11:15:00 51°31.287 2°52.503 209.5 0.4 296 21.5
2012-01-18 11:16:00 51°31.287 2°52.497 201 0.2 290 20.9
2012-01-18 11:17:00 51°31.288 2°52.501 190 0.4 105 21.7
2012-01-18 11:18:00 51°31.285 2°52.51 183.5 0.4 82 21.9
2012-01-18 11:19:00 51°31.284 2°52.517 192.5 0.3 156 22.4
2012-01-18 11:19:59 51°31.284 2°52.516 203.4 0.1 304 22.2
2012-01-18 11:21:00 51°31.284 2°52.514 207.5 -999 13 21.9
2012-01-18 11:22:00 51°31.284 2°52.513 203.3 0.1 277 22.1
2012-01-18 11:23:00 51°31.285 2°52.51 204.7 0.2 327 21.9
2012-01-18 11:24:00 51°31.286 2°52.506 204.8 0.3 259 21.3
2012-01-18 11:25:00 51°31.286 2°52.508 197.2 0.3 130 21.9
2012-01-18 11:26:00 51°31.284 2°52.514 191 0.3 160 22
2012-01-18 11:26:59 51°31.285 2°52.514 203.2 0.2 349 22
2012-01-18 11:28:00 51°31.285 2°52.508 208.5 0.4 306 21.3
2012-01-18 11:29:00 51°31.287 2°52.504 204.2 0.2 3 21.7
2012-01-18 11:30:00 51°31.287 2°52.502 198.3 0.1 40 21.4
2012-01-18 11:31:00 51°31.287 2°52.506 196.8 0.1 50 22
2012-01-18 11:32:00 51°31.286 2°52.509 190.5 0.2 71 21.8
2012-01-18 11:33:00 51°31.286 2°52.51 199.9 0.1 17 21.9
2012-01-18 11:33:59 51°31.286 2°52.51 202.1 0.1 308 21.7
2012-01-18 11:35:00 51°31.287 2°52.509 198 0.2 45 21.7
2012-01-18 11:36:00 51°31.286 2°52.511 198.4 0.2 105 21.8
2012-01-18 11:37:00 51°31.285 2°52.517 193.1 0.3 93 22
2012-01-18 11:38:00 51°31.284 2°52.517 202.1 0.1 261 21.8
2012-01-18 11:39:00 51°31.284 2°52.514 211.4 0.2 317 22
2012-01-18 11:40:00 51°31.285 2°52.51 210.2 0.4 279 21.3
2012-01-18 11:41:00 51°31.287 2°52.505 205.7 0.1 232 21.5
2012-01-18 11:42:00 51°31.288 2°52.503 199.6 0.1 26 21.3
2012-01-18 11:42:59 51°31.288 2°52.507 193.9 0.2 74 22
2012-01-18 11:44:00 51°31.286 2°52.51 191.7 0.1 178 21.4
2012-01-18 11:45:00 51°31.285 2°52.514 192.6 0.3 239 21.8
2012-01-18 11:46:00 51°31.286 2°52.512 199.6 0.1 120 22.1
2012-01-18 11:47:00 51°31.286 2°52.511 198.3 0.2 161 21.5
2012-01-18 11:48:00 51°31.287 2°52.513 197.5 0.3 112 21.5
2012-01-18 11:49:00 51°31.285 2°52.517 194.2 0.2 131 21.7
2012-01-18 11:50:00 51°31.283 2°52.518 199.7 0.3 270 21.4
2012-01-18 11:51:00 51°31.286 2°52.509 215.1 0.5 281 21.3
2012-01-18 11:52:00 51°31.289 2°52.5 210.7 0.2 319 21.5
2012-01-18 11:53:00 51°31.29 2°52.503 184.2 0.4 80 21.8
2012-01-18 11:54:00 51°31.286 2°52.516 176.3 0.6 120 22.1
2012-01-18 11:54:59 51°31.285 2°52.521 191.9 0.4 46 22.6
2012-01-18 11:56:00 51°31.284 2°52.521 200.3 0.2 218 22.4
2012-01-18 11:56:59 51°31.284 2°52.522 198.2 0.1 78 22.4
2012-01-18 11:58:00 51°31.284 2°52.519 205.3 0.3 8 22.4
2012-01-18 11:58:59 51°31.283 2°52.516 205.2 0.3 220 21.4
2012-01-18 12:00:00 51°31.274 2°52.509 203 0.6 227 19.2
2012-01-18 12:00:59 51°31.266 2°52.502 202.6 0.5 202 20.3
2012-01-18 12:02:00 51°31.254 2°52.496 198.4 0.5 205 20.5
2012-01-18 12:03:00 51°31.249 2°52.493 197.7 0.3 214 20.7
2012-01-18 12:04:00 51°31.244 2°52.493 194.3 0.4 164 19.7
2012-01-18 12:05:00 51°31.238 2°52.5 184.6 0.5 84 19.2
2012-01-18 12:06:00 51°31.25 2°52.517 166.3 1 45 20
2012-01-18 12:07:00 51°31.23 2°52.546 178.2 2.8 169 20.1
2012-01-18 12:08:00 51°31.161 2°52.467 216.7 8.2 221 21.1
2012-01-18 12:09:00 51°31.029 2°52.3 214.1 11 216 19.9
2012-01-18 12:09:59 51°30.881 2°52.124 216 11.5 219 21.2
2012-01-18 12:11:00 51°30.735 2°51.924 215.1 11.1 217 20.8
2012-01-18 12:11:59 51°30.587 2°51.755 212.9 11.2 215 20.2
2012-01-18 12:12:59 51°30.44 2°51.564 217.8 11.4 220 18.4
2012-01-18 12:14:00 51°30.292 2°51.372 213.9 11.1 216 22.4
2012-01-18 12:15:00 51°30.139 2°51.2 214.2 11.3 218 25.9
2012-01-18 12:16:00 51°29.993 2°51.005 217.6 11.5 220 28.5
2012-01-18 12:17:00 51°29.842 2°50.82 214.2 11.5 217 29.2
2012-01-18 12:18:00 51°29.694 2°50.629 220.7 11.5 223 30
2012-01-18 12:19:00 51°29.565 2°50.406 224.4 11.7 227 30.7
2012-01-18 12:19:59 51°29.433 2°50.19 221.6 11.5 223 30.5
2012-01-18 12:21:00 51°29.289 2°49.983 218 11.3 221 29.7
2012-01-18 12:22:00 51°29.149 2°49.778 221 11.4 224 30.3
2012-01-18 12:23:00 51°29.018 2°49.553 225.1 11.5 227 27.9
2012-01-18 12:24:00 51°28.881 2°49.346 218.9 11.5 222 27.1
2012-01-18 12:25:00 51°28.738 2°49.139 220 11.5 224 28.3
2012-01-18 12:25:59 51°28.606 2°48.922 223.2 11.5 225 32.2
2012-01-18 12:26:59 51°28.473 2°48.705 222.9 11.5 227 27
2012-01-18 12:28:00 51°28.335 2°48.486 220 11.5 223 25.9
2012-01-18 12:29:00 51°28.192 2°48.283 218.6 11.6 222 29.9
2012-01-18 12:30:00 51°28.055 2°48.065 224.2 11.5 226 29.8
2012-01-18 12:30:59 51°27.924 2°47.849 221.9 11.5 224 29
2012-01-18 12:32:00 51°27.781 2°47.637 219.2 11.5 223 28.4
2012-01-18 12:32:59 51°27.646 2°47.427 222.3 11.2 224 30.8
2012-01-18 12:34:00 51°27.51 2°47.204 223.1 11.4 226 29.2
2012-01-18 12:35:00 51°27.372 2°46.994 219.9 11.5 223 29.7
2012-01-18 12:36:00 51°27.238 2°46.77 223.8 11.5 227 30.8
2012-01-18 12:37:00 51°27.099 2°46.557 218.1 11.5 220 30.1
2012-01-18 12:38:00 51°26.948 2°46.368 214.2 11.3 217 30.1
2012-01-18 12:39:00 51°26.799 2°46.176 217 11.6 221 30.6
2012-01-18 12:39:59 51°26.659 2°45.973 217.5 11.5 221 28
2012-01-18 12:41:00 51°26.504 2°45.783 212.1 11.4 215 27.4
2012-01-18 12:41:59 51°26.352 2°45.605 214.2 11.6 219 27.4
2012-01-18 12:43:00 51°26.202 2°45.401 216.3 11.5 219 25.9
2012-01-18 12:43:59 51°26.046 2°45.228 210.8 11.3 214 25.4
2012-01-18 12:44:59 51°25.891 2°45.049 212.8 11.7 216 24.7
2012-01-18 12:46:00 51°25.741 2°44.85 217 11.5 221 24
2012-01-18 12:47:00 51°25.59 2°44.654 213.3 11.7 217 24
2012-01-18 12:48:00 51°25.435 2°44.47 212.3 11.5 216 23.7
2012-01-18 12:49:00 51°25.282 2°44.279 215.5 11.5 219 21.8
2012-01-18 12:50:00 51°25.126 2°44.103 204.5 11.5 206 21.5
2012-01-18 12:50:59 51°24.967 2°44.018 192.2 6.9 193 21.7
2012-01-18 12:52:00 51°24.894 2°44.009 183.2 3.1 193 18
2012-01-18 12:52:59 51°24.867 2°43.972 234.4 2.8 244 20.4
2012-01-18 12:54:00 51°24.833 2°43.911 200.5 3.5 209 22.3
2012-01-18 12:55:00 51°24.769 2°43.82 221.6 4 226 23.9
2012-01-18 12:56:00 51°24.727 2°43.768 209.1 3 218 21.7
2012-01-18 12:57:00 51°24.687 2°43.736 200.4 2.3 208 22.9
2012-01-18 12:58:00 51°24.678 2°43.713 224.4 0.7 340 22.2
2012-01-18 12:59:01 51°24.694 2°43.721 266.2 1 27 23.3
2012-01-18 13:00:00 51°24.706 2°43.734 297.6 0.9 35 22.7
2012-01-18 13:01:00 51°24.719 2°43.74 310.7 1.8 324 21.6
2012-01-18 13:02:00 51°24.734 2°43.663 251.9 3.6 265 23.4
2012-01-18 13:02:59 51°24.679 2°43.583 182.8 5 184 23
2012-01-18 13:04:00 51°24.643 2°43.614 145.6 1.3 126 23.3
2012-01-18 13:05:00 51°24.644 2°43.632 140.4 0.5 45 23
2012-01-18 13:06:00 51°24.652 2°43.648 119.7 1 79 23.3
2012-01-18 13:07:00 51°24.655 2°43.67 127.4 0.7 70 21.7
2012-01-18 13:08:00 51°24.662 2°43.685 126 0.8 37 19.9
2012-01-18 13:09:00 51°24.666 2°43.7 128.6 0.6 35 21.3
2012-01-18 13:10:00 51°24.677 2°43.709 119.9 0.6 36 22.5
2012-01-18 13:11:00 51°24.691 2°43.713 110 1 3 23.7
2012-01-18 13:12:00 51°24.704 2°43.717 107.1 0.8 9 23.4
2012-01-18 13:13:00 51°24.69 2°43.756 144.5 2.3 142 21.4
2012-01-18 13:14:00 51°24.654 2°43.773 180.3 2.3 184 23.1
2012-01-18 13:15:00 51°24.624 2°43.742 230.5 2 245 23.9
2012-01-18 13:15:59 51°24.63 2°43.704 271.7 1.2 322 22
2012-01-18 13:17:00 51°24.644 2°43.698 293.2 0.8 4 20
2012-01-18 13:18:00 51°24.656 2°43.701 312.2 0.7 29 22.1
2012-01-18 13:19:00 51°24.666 2°43.706 316.8 0.5 25 21.3
2012-01-18 13:20:00 51°24.676 2°43.709 311.5 0.6 9 23.4
2012-01-18 13:20:59 51°24.688 2°43.711 308.2 0.9 12 23.5
2012-01-18 13:22:00 51°24.7 2°43.716 303.4 1.1 18 22.9
2012-01-18 13:23:00 51°24.71 2°43.721 304.8 0.8 19 23.2
2012-01-18 13:24:00 51°24.72 2°43.724 304.8 0.9 338 22.4
2012-01-18 13:25:00 51°24.733 2°43.676 264 2.6 277 23.1
2012-01-18 13:26:00 51°24.72 2°43.612 218.1 2.7 228 21.3
2012-01-18 13:27:00 51°24.613 2°43.562 191.6 8.3 194 19.5
2012-01-18 13:28:00 51°24.562 2°43.541 182.4 0.5 189 23.7
2012-01-18 13:29:03 51°24.588 2°43.529 153.6 2.8 335 -999
2012-01-18 13:30:03 51°24.608 2°43.511 106.3 0.7 79 22.7
2012-01-18 13:31:02 51°24.604 2°43.569 104.6 3 100 20.6
2012-01-18 13:32:00 51°24.616 2°43.647 63 3.3 61 23.7
2012-01-18 13:33:00 51°24.625 2°43.672 103.2 0.5 13 23.5
2012-01-18 13:34:00 51°24.631 2°43.677 114 0.4 68 22.6
2012-01-18 13:35:00 51°24.634 2°43.686 124.7 0.5 62 22.2
2012-01-18 13:36:00 51°24.64 2°43.691 123.3 0.5 12 20.8
2012-01-18 13:37:00 51°24.649 2°43.694 113.9 0.5 7 20.2
2012-01-18 13:38:00 51°24.656 2°43.7 108.5 0.5 29 22.6
2012-01-18 13:39:00 51°24.662 2°43.706 114 0.4 37 23.6
2012-01-18 13:40:00 51°24.669 2°43.71 115.9 0.5 18 22
2012-01-18 13:41:00 51°24.675 2°43.716 114.5 0.3 26 19.9
2012-01-18 13:42:00 51°24.682 2°43.72 116.2 0.5 29 22.7
2012-01-18 13:43:00 51°24.689 2°43.724 117.6 0.3 27 23
2012-01-18 13:44:00 51°24.695 2°43.727 114.8 0.3 23 23.2
2012-01-18 13:45:00 51°24.701 2°43.735 119.2 0.8 80 23.1
2012-01-18 13:46:00 51°24.687 2°43.763 141.9 1.9 141 21.3
2012-01-18 13:47:00 51°24.653 2°43.79 161.7 2.9 166 21.8
2012-01-18 13:48:00 51°24.604 2°43.743 240.8 2.8 245 23.1
2012-01-18 13:49:00 51°24.606 2°43.721 299.9 0.3 108 22.4
2012-01-18 13:49:59 51°24.619 2°43.71 322.1 1.5 321 21
2012-01-18 13:51:00 51°24.633 2°43.693 308.7 1 338 21.8
2012-01-18 13:52:00 51°24.648 2°43.665 312.1 1.8 312 22.5
2012-01-18 13:53:00 51°24.657 2°43.654 312.7 0.6 116 22.4
2012-01-18 13:54:03 51°24.652 2°43.671 332.8 0.6 130 22.3
2012-01-18 13:55:01 51°24.645 2°43.68 349.6 0.2 59 21.6
2012-01-18 13:56:00 51°24.667 2°43.683 17.8 0.9 358 20
2012-01-18 13:57:01 51°24.657 2°43.67 16.8 1.3 202 -999
2012-01-18 13:58:03 51°24.671 2°43.692 62.6 1.7 63 21
2012-01-18 13:59:01 51°24.676 2°43.712 86.3 0.6 69 20
2012-01-18 14:00:00 51°24.675 2°43.724 104.7 0.2 77 21.2
2012-01-18 14:01:00 51°24.673 2°43.733 115.8 0.3 98 23.6
2012-01-18 14:02:00 51°24.675 2°43.74 118.6 0.3 58 23.1
2012-01-18 14:03:00 51°24.676 2°43.745 122.7 0.1 102 22.2
2012-01-18 14:03:59 51°24.678 2°43.748 123.5 0.5 23 22.5
2012-01-18 14:05:00 51°24.682 2°43.749 120.8 0.4 10 22.4
2012-01-18 14:05:59 51°24.685 2°43.748 118.1 0.1 327 22
2012-01-18 14:07:00 51°24.689 2°43.749 116.3 0.5 20 22.6
2012-01-18 14:08:00 51°24.692 2°43.748 112.4 0.2 328 22.2
2012-01-18 14:09:00 51°24.696 2°43.746 113.3 0.1 359 22.2
2012-01-18 14:10:00 51°24.681 2°43.78 125.6 3.1 133 20.4
2012-01-18 14:10:59 51°24.61 2°43.901 133.2 8.3 140 23.7
2012-01-18 14:12:00 51°24.468 2°44.053 144 10.8 150 22.6
2012-01-18 14:12:59 51°24.312 2°44.212 144.2 12 150 25.4
2012-01-18 14:14:00 51°24.139 2°44.378 143.6 12 152 26.3
2012-01-18 14:15:00 51°23.957 2°44.507 157.5 12.2 160 26.1
2012-01-18 14:15:59 51°23.771 2°44.608 157.3 12.1 162 25.1
2012-01-18 14:17:00 51°23.578 2°44.713 155.4 12 162 25.5
2012-01-18 14:17:59 51°23.396 2°44.835 150.9 12.2 157 25.9
2012-01-18 14:18:59 51°23.217 2°44.981 148.9 11.9 152 26.3
2012-01-18 14:20:00 51°23.036 2°45.126 149.3 12 153 26.2
2012-01-18 14:20:59 51°22.857 2°45.264 150 12.2 156 26.2
2012-01-18 14:21:59 51°22.676 2°45.408 150.7 12.1 154 25.8
2012-01-18 14:23:00 51°22.489 2°45.546 151 12.1 154 23.8
2012-01-18 14:24:00 51°22.33 2°45.725 126.9 11.4 116 21.9
2012-01-18 14:25:01 51°22.375 2°45.968 53.6 10.8 51 21
2012-01-18 14:25:59 51°22.471 2°46.221 56.7 11.7 55 18.8
2012-01-18 14:26:59 51°22.608 2°46.431 39.9 11.5 37 21
2012-01-18 14:27:59 51°22.759 2°46.619 41.5 11.9 47 19.7
2012-01-18 14:28:59 51°22.9 2°46.833 45.8 11.7 44 19.5
2012-01-18 14:29:59 51°23.033 2°47.054 44.7 11.4 45 18
2012-01-18 14:30:59 51°23.164 2°47.278 46.5 11.8 43 20.6
2012-01-18 14:31:59 51°23.304 2°47.487 40.4 11.3 45 19.1
2012-01-18 14:32:59 51°23.438 2°47.702 48.8 11.7 45 21
2012-01-18 14:33:59 51°23.572 2°47.921 43.3 11.6 42 17.3
2012-01-18 14:34:59 51°23.708 2°48.132 44.7 11.2 46 21.4
2012-01-18 14:35:59 51°23.841 2°48.356 46.2 11.7 50 21.9
2012-01-18 14:36:59 51°23.973 2°48.572 46.2 11.3 46 20.6
2012-01-18 14:37:59 51°24.105 2°48.792 43 11.1 40 21.7
2012-01-18 14:39:00 51°24.242 2°49.009 46 11.6 43 21.9
2012-01-18 14:40:00 51°24.374 2°49.223 45.1 11.7 45 22.4
2012-01-18 14:41:00 51°24.515 2°49.421 39.9 11.1 37 22
2012-01-18 14:42:00 51°24.66 2°49.613 39.7 11.6 43 22.1
2012-01-18 14:43:00 51°24.81 2°49.799 41.6 11.1 41 22.1
2012-01-18 14:43:59 51°24.953 2°49.99 40.4 11.4 31 22.7
2012-01-18 14:44:59 51°25.097 2°50.179 38.8 11.4 39 23.3
2012-01-18 14:45:59 51°25.239 2°50.374 40.7 11.3 44 22.9
2012-01-18 14:47:00 51°25.383 2°50.568 42.7 11.3 46 23.2
2012-01-18 14:47:59 51°25.528 2°50.752 39.4 11.5 38 23.1
2012-01-18 14:48:59 51°25.675 2°50.943 37 11.4 32 23.1
2012-01-18 14:49:59 51°25.85 2°51.048 18.2 11.4 18 23.3
2012-01-18 14:50:59 51°26.034 2°51.126 20 11.5 14 22.9
2012-01-18 14:51:59 51°26.217 2°51.218 19.6 11.5 14 23.2
2012-01-18 14:52:59 51°26.4 2°51.316 18.9 12 22 26.8
2012-01-18 14:54:00 51°26.58 2°51.451 28.6 12.1 32 24.7
2012-01-18 14:55:00 51°26.705 2°51.567 45.3 5.8 46 24.4
2012-01-18 14:56:00 51°26.724 2°51.663 82.4 2.7 82 25
2012-01-18 14:57:00 51°26.725 2°51.699 96.8 0.3 281 24.9
2012-01-18 14:58:02 51°26.729 2°51.673 89.4 0.9 279 25.1
2012-01-18 14:59:00 51°26.732 2°51.663 88.7 0.2 298 24.5
2012-01-18 15:00:00 51°26.733 2°51.663 106.8 0.1 99 24.8
2012-01-18 15:01:00 51°26.731 2°51.667 123.7 0.3 162 24.3
2012-01-18 15:02:00 51°26.73 2°51.67 127.8 0.2 132 24.5
2012-01-18 15:03:00 51°26.73 2°51.677 127.5 0.3 48 25.1
2012-01-18 15:04:00 51°26.728 2°51.679 127.4 0.3 176 24.7
2012-01-18 15:05:00 51°26.73 2°51.681 121.3 0.2 132 24.3
2012-01-18 15:06:00 51°26.732 2°51.681 117.7 0.2 336 24.8
2012-01-18 15:07:00 51°26.734 2°51.68 115.5 0.1 306 24.8
2012-01-18 15:08:00 51°26.734 2°51.679 114.3 0.1 47 24.5
2012-01-18 15:09:00 51°26.736 2°51.681 118.3 0.1 344 25.1
2012-01-18 15:10:00 51°26.734 2°51.685 123.8 0.1 128 25.1
2012-01-18 15:11:00 51°26.734 2°51.687 123.8 0.2 60 25
2012-01-18 15:12:00 51°26.735 2°51.688 123.1 0.1 324 25.1
2012-01-18 15:13:00 51°26.736 2°51.687 119 0.1 322 24.9
2012-01-18 15:14:00 51°26.738 2°51.686 115.7 0.1 272 24.3
2012-01-18 15:15:00 51°26.74 2°51.684 112.9 0.1 180 24.5
2012-01-18 15:16:00 51°26.741 2°51.687 118.2 0.4 135 24.4
2012-01-18 15:17:00 51°26.741 2°51.69 123.5 0.2 354 25
2012-01-18 15:18:00 51°26.743 2°51.691 124.1 0.3 14 25
2012-01-18 15:19:00 51°26.746 2°51.69 120.5 0.2 322 25.1
2012-01-18 15:20:00 51°26.747 2°51.689 121.2 0.2 354 25.1
2012-01-18 15:21:00 51°26.747 2°51.689 123.3 -999 151 24.6
2012-01-18 15:22:00 51°26.748 2°51.691 122.8 0.1 83 24.8
2012-01-18 15:23:00 51°26.746 2°51.694 127.6 0.2 111 24.9
2012-01-18 15:24:00 51°26.744 2°51.697 130.5 0.2 171 24.9
2012-01-18 15:25:00 51°26.742 2°51.7 131.8 -999 7 25.1
2012-01-18 15:26:00 51°26.741 2°51.701 127.1 -999 72 25.3
2012-01-18 15:26:59 51°26.742 2°51.7 120.9 0.1 245 24.8
2012-01-18 15:28:00 51°26.742 2°51.7 120.2 0.3 143 24.6
2012-01-18 15:29:00 51°26.744 2°51.699 120.2 0.2 319 25
2012-01-18 15:30:00 51°26.745 2°51.698 124.4 0.1 127 24.8
2012-01-18 15:31:00 51°26.744 2°51.7 126.4 0.2 60 25.6
2012-01-18 15:32:00 51°26.744 2°51.7 127.8 0.4 33 25.4
2012-01-18 15:33:00 51°26.744 2°51.7 126.2 0.1 237 25.2
2012-01-18 15:33:59 51°26.748 2°51.694 117.9 0.4 297 25.3
2012-01-18 15:34:59 51°26.75 2°51.69 118.9 0.2 266 25.2
2012-01-18 15:35:59 51°26.748 2°51.694 129.3 0.5 151 25.3
2012-01-18 15:36:59 51°26.739 2°51.704 139.2 0.5 146 25.5
2012-01-18 15:37:59 51°26.736 2°51.708 134.7 -999 148 25.1
2012-01-18 15:38:59 51°26.737 2°51.71 121.4 0.1 100 25
2012-01-18 15:39:59 51°26.737 2°51.715 116.6 0.4 121 25.1
2012-01-18 15:40:59 51°26.723 2°51.737 139.2 2.3 151 24.8
2012-01-18 15:41:59 51°26.663 2°51.747 184.9 6 181 27
2012-01-18 15:42:59 51°26.498 2°51.761 170.1 12 174 25.6
2012-01-18 15:44:00 51°26.289 2°51.759 180.5 12.3 186 24.9
2012-01-18 15:45:00 51°26.085 2°51.721 182.5 12.3 185 28.6
2012-01-18 15:46:00 51°25.88 2°51.702 177.9 12.3 180 31.4
2012-01-18 15:46:59 51°25.679 2°51.698 176 12.4 179 26
2012-01-18 15:47:59 51°25.474 2°51.696 176.3 12.4 183 24.5
2012-01-18 15:48:59 51°25.267 2°51.682 177.2 12.5 180 22.5
2012-01-18 15:49:59 51°25.059 2°51.668 178.3 12.6 184 22
2012-01-18 15:50:59 51°24.852 2°51.655 177.7 12.4 181 22.9
2012-01-18 15:51:59 51°24.645 2°51.647 177 12.3 183 22.4
2012-01-18 15:52:59 51°24.438 2°51.64 176.5 12.4 180 21.1
2012-01-18 15:53:59 51°24.229 2°51.63 180 12.4 182 21.3
2012-01-18 15:54:59 51°24.021 2°51.618 177.6 12.5 183 19.9
2012-01-18 15:55:59 51°23.813 2°51.623 175.4 12.3 178 18.5
2012-01-18 15:56:59 51°23.605 2°51.616 180.1 12.4 184 15.4
2012-01-18 15:57:59 51°23.399 2°51.613 177.7 12.5 179 15.4
2012-01-18 15:58:59 51°23.192 2°51.609 178.1 12.5 181 16.5
2012-01-18 15:59:59 51°22.983 2°51.613 176.2 12.6 177 23.4
2012-01-18 16:00:59 51°22.775 2°51.609 177.7 12.4 180 23.4
2012-01-18 16:01:59 51°22.566 2°51.6 178.8 12.6 182 23.5
2012-01-18 16:02:59 51°22.357 2°51.595 177 12.4 180 24.1
2012-01-18 16:03:59 51°22.149 2°51.602 175.3 12.4 178 23.7
2012-01-18 16:04:59 51°21.943 2°51.597 178.9 12.3 181 24.6
2012-01-18 16:05:59 51°21.736 2°51.596 176.5 12.3 178 25
2012-01-18 16:06:59 51°21.534 2°51.654 163.6 12.4 167 23.3
2012-01-18 16:07:59 51°21.329 2°51.703 169.2 12.5 173 21.2
2012-01-18 16:08:59 51°21.123 2°51.747 170.4 12.6 172 18.7
2012-01-18 16:09:59 51°20.917 2°51.789 172 12.5 175 17.3
2012-01-18 16:10:59 51°20.71 2°51.809 175 12.6 177 15.1
2012-01-18 16:11:59 51°20.506 2°51.836 169.9 12.3 171 13.7
2012-01-18 16:12:59 51°20.303 2°51.879 169.9 12.4 172 13.6
2012-01-18 16:13:59 51°20.1 2°51.908 175.4 12.2 177 15.8
2012-01-18 16:14:59 51°19.895 2°51.917 177.1 12.2 178 16.1
2012-01-18 16:15:59 51°19.69 2°51.934 173.5 12.5 176 16
2012-01-18 16:16:59 51°19.484 2°51.949 175.5 12.4 180 16.2
2012-01-18 16:17:59 51°19.278 2°51.971 174.8 12.4 177 15.8
2012-01-18 16:18:59 51°19.073 2°51.991 173.5 12.4 178 14.8
2012-01-18 16:19:59 51°18.868 2°52.007 175.5 12.3 177 14.5
2012-01-18 16:20:59 51°18.665 2°52.02 175.2 12.1 174 13.6
2012-01-18 16:21:59 51°18.46 2°52.054 170 12.2 172 12.2
2012-01-18 16:22:59 51°18.256 2°52.097 170.3 12.4 173 11.8
2012-01-18 16:23:59 51°18.052 2°52.135 172.1 12.4 173 11.7
2012-01-18 16:24:59 51°17.848 2°52.171 172.2 12.3 174 12
2012-01-18 16:25:59 51°17.643 2°52.202 171.3 12.4 175 11.9
2012-01-18 16:26:59 51°17.439 2°52.25 169 12.4 171 11.8
2012-01-18 16:27:59 51°17.251 2°52.368 148.9 12.4 152 10.7
2012-01-18 16:28:59 51°17.083 2°52.552 140.2 12.1 145 10.1
2012-01-18 16:29:59 51°16.926 2°52.763 139.8 12 142 10.1
2012-01-18 16:30:59 51°16.773 2°52.978 134.3 12.4 134 11
2012-01-18 16:31:59 51°16.63 2°53.215 131.5 12.1 131 12.1
2012-01-18 16:32:59 51°16.485 2°53.447 134 12.1 141 12.6
2012-01-18 16:33:59 51°16.34 2°53.677 132.6 12.4 139 12.6
2012-01-18 16:34:59 51°16.215 2°53.928 121.6 11.8 121 12.3
2012-01-18 16:35:59 51°16.167 2°54.157 106.1 7.7 103 11.8
2012-01-18 16:36:59 51°16.183 2°54.293 45.1 4.5 44 11.8
2012-01-18 16:37:59 51°16.242 2°54.3 332.5 3 338 11.5
2012-01-18 16:38:59 51°16.263 2°54.291 315.1 0.5 69 12
2012-01-18 16:39:59 51°16.269 2°54.304 318.3 0.7 53 12.2
2012-01-18 16:40:59 51°16.275 2°54.319 325.2 0.7 57 12.2
2012-01-18 16:42:00 51°16.285 2°54.331 325.4 1.2 351 12.1
2012-01-18 16:43:00 51°16.297 2°54.263 257.3 4.6 255 12.2
2012-01-18 16:44:00 51°16.196 2°54.153 195.8 10.2 194 12
2012-01-18 16:45:00 51°16.009 2°54.17 168.3 11.7 167 11.4
2012-01-18 16:46:00 51°15.815 2°54.243 168.3 11.9 173 11.1
2012-01-18 16:47:00 51°15.618 2°54.287 171.3 12 172 10.9
2012-01-18 16:48:00 51°15.422 2°54.336 167.9 11.7 167 10.2
2012-01-18 16:49:00 51°15.231 2°54.414 165.4 11.8 166 9.9
2012-01-18 16:50:00 51°15.04 2°54.5 165.6 12 165 11.4
2012-01-18 16:51:00 51°14.862 2°54.642 149.5 12.1 150 12.7
2012-01-18 16:52:00 51°14.698 2°54.828 145 11.9 144 12.3
2012-01-18 16:53:00 51°14.541 2°55.025 143.5 12.2 142 12.6
2012-01-18 16:54:03 51°14.373 2°55.205 146.7 10.6 147 -999
2012-01-18 16:55:03 51°14.236 2°55.333 151.1 9.1 153 -999
2012-01-18 16:56:04 51°14.102 2°55.434 153.7 8.2 156 -999
2012-01-18 16:57:03 51°13.984 2°55.518 154 7.9 155 -999
2012-01-18 16:58:03 51°13.867 2°55.601 154.5 7.8 155 11.7
2012-01-18 16:59:02 51°13.775 2°55.687 141.3 5.7 140 11.9
2012-01-18 17:00:03 51°13.711 2°55.796 129.4 5.4 128 13
2012-01-18 17:01:04 51°13.663 2°55.902 121.1 4.3 120 -999
2012-01-18 17:02:03 51°13.641 2°55.994 103.5 2.9 102 9.9
2012-01-18 17:03:02 51°13.636 2°56.018 121.6 0.2 311 9.9